createdAt,value
2023-01-09T00:00:50.143Z,4.12
2023-01-09T00:03:16.731Z,3.41
2023-01-09T00:05:43.301Z,4.14
2023-01-09T00:08:09.878Z,3.31
2023-01-09T00:10:36.503Z,4.14
2023-01-09T00:13:03.172Z,3.76
2023-01-09T00:15:29.721Z,4.15
2023-01-09T00:17:56.572Z,4.17
2023-01-09T00:20:23.423Z,4.17
2023-01-09T00:22:50.104Z,4.09
2023-01-09T00:25:16.780Z,4.19
2023-01-09T00:27:43.404Z,4.17
2023-01-09T00:30:11.201Z,3.28
2023-01-09T00:32:37.746Z,3.94
2023-01-09T00:35:04.802Z,3.86
2023-01-09T00:37:31.408Z,4.04
2023-01-09T00:39:58.076Z,4.15
2023-01-09T00:42:30.554Z,4.12
2023-01-09T00:45:01.069Z,4.04
2023-01-09T00:47:37.444Z,2.43
2023-01-09T00:50:11.484Z,4.11
2023-01-09T00:52:39.704Z,4.10
2023-01-09T00:55:07.231Z,4.01
2023-01-09T00:57:33.802Z,3.76
2023-01-09T01:00:01.060Z,4.08
2023-01-09T01:02:31.237Z,3.98
2023-01-09T01:05:16.671Z,3.36
2023-01-09T01:07:44.947Z,4.14
2023-01-09T01:10:21.066Z,3.62
2023-01-09T01:12:48.738Z,4.18
2023-01-09T01:15:17.164Z,4.18
2023-01-09T01:17:44.789Z,4.19
2023-01-09T01:20:15.359Z,4.21
2023-01-09T01:22:42.430Z,3.71
2023-01-09T01:25:11.089Z,3.39
2023-01-09T01:27:38.140Z,4.22
2023-01-09T01:30:06.732Z,4.19
2023-01-09T01:32:33.282Z,3.17
2023-01-09T01:34:59.888Z,3.71
2023-01-09T01:37:27.769Z,3.88
2023-01-09T01:39:54.928Z,4.21
2023-01-09T01:42:21.521Z,3.46
2023-01-09T01:45:02.453Z,4.25
2023-01-09T01:47:40.542Z,4.24
2023-01-09T01:50:21.435Z,3.95
2023-01-09T01:52:55.924Z,3.94
2023-01-09T01:55:23.446Z,4.22
2023-01-09T01:58:07.658Z,4.19
2023-01-09T02:00:38.977Z,3.88
2023-01-09T02:03:06.370Z,4.15
2023-01-09T02:05:35.561Z,4.14
2023-01-09T02:08:02.153Z,3.89
2023-01-09T02:10:28.773Z,4.09
2023-01-09T02:12:55.407Z,3.32
2023-01-09T02:15:22.144Z,4.02
2023-01-09T02:18:16.329Z,3.59
2023-01-09T02:20:51.638Z,4.01
2023-01-09T02:23:39.834Z,3.99
2023-01-09T02:26:25.170Z,4.02
2023-01-09T02:29:07.101Z,4.04
2023-01-09T02:31:39.696Z,4.03
2023-01-09T02:34:24.696Z,4.08
2023-01-09T02:37:06.615Z,4.06
2023-01-09T02:39:45.886Z,3.53
2023-01-09T02:42:19.729Z,4.09
2023-01-09T02:44:46.364Z,4.11
2023-01-09T02:47:15.722Z,4.11
2023-01-09T02:50:03.899Z,4.12
2023-01-09T02:52:55.267Z,4.12
2023-01-09T02:55:49.384Z,4.15
2023-01-09T02:58:40.151Z,4.16
2023-01-09T03:01:26.112Z,4.19
2023-01-09T03:03:58.946Z,4.17
2023-01-09T03:06:47.576Z,4.19
2023-01-09T03:09:20.298Z,4.14
2023-01-09T03:11:53.556Z,4.17
2023-01-09T03:14:26.416Z,3.53
2023-01-09T03:16:58.373Z,4.16
2023-01-09T03:19:29.728Z,3.90
2023-01-09T03:21:56.631Z,4.16
2023-01-09T03:24:23.226Z,4.06
2023-01-09T03:26:50.259Z,3.11
2023-01-09T03:29:16.903Z,4.21
2023-01-09T03:31:43.628Z,4.19
2023-01-09T03:34:10.368Z,4.22
2023-01-09T03:36:37.002Z,3.80
2023-01-09T03:39:03.609Z,4.21
2023-01-09T03:41:30.194Z,3.88
2023-01-09T03:43:56.771Z,4.19
2023-01-09T03:46:23.388Z,3.45
2023-01-09T03:48:50.007Z,3.67
2023-01-09T03:51:16.607Z,4.15
2023-01-09T03:53:43.197Z,4.23
2023-01-09T03:56:09.917Z,4.27
2023-01-09T03:58:36.547Z,3.96
2023-01-09T04:01:05.123Z,4.28
2023-01-09T04:03:31.889Z,4.20
2023-01-09T04:05:58.560Z,4.31
2023-01-09T04:08:25.159Z,3.32
2023-01-09T04:10:52.235Z,4.28
2023-01-09T04:13:19.464Z,4.25
2023-01-09T04:15:46.051Z,3.63
2023-01-09T04:18:12.913Z,4.22
2023-01-09T04:20:39.578Z,4.20
2023-01-09T04:23:06.451Z,4.14
2023-01-09T04:25:33.201Z,4.14
2023-01-09T04:27:59.817Z,4.12
2023-01-09T04:30:29.222Z,3.89
2023-01-09T04:32:55.907Z,3.74
2023-01-09T04:35:22.568Z,4.06
2023-01-09T04:37:49.207Z,4.05
2023-01-09T04:40:15.834Z,4.01
2023-01-09T04:42:42.621Z,3.99
2023-01-09T04:45:11.018Z,3.96
2023-01-09T04:47:38.223Z,3.86
2023-01-09T04:50:05.308Z,3.94
2023-01-09T04:52:31.934Z,3.93
2023-01-09T04:54:58.590Z,3.93
2023-01-09T04:57:25.261Z,3.91
2023-01-09T04:59:52.327Z,3.88
2023-01-09T05:02:20.051Z,3.86
2023-01-09T05:04:46.614Z,3.84
2023-01-09T05:07:13.334Z,3.85
2023-01-09T05:09:39.874Z,3.86
2023-01-09T05:12:06.576Z,3.87
2023-01-09T05:14:33.346Z,3.89
2023-01-09T05:16:59.969Z,3.90
2023-01-09T05:19:26.584Z,3.91
2023-01-09T05:21:53.200Z,3.92
2023-01-09T05:24:19.895Z,3.81
2023-01-09T05:26:46.548Z,3.90
2023-01-09T05:29:13.176Z,3.92
2023-01-09T05:31:39.879Z,3.93
2023-01-09T05:34:06.481Z,3.99
2023-01-09T05:36:33.086Z,3.96
2023-01-09T05:39:00.283Z,3.98
2023-01-09T05:41:27.570Z,3.97
2023-01-09T05:43:54.137Z,3.85
2023-01-09T05:46:20.740Z,4.04
2023-01-09T05:48:47.386Z,3.96
2023-01-09T05:51:15.535Z,4.02
2023-01-09T05:53:42.147Z,4.03
2023-01-09T05:56:10.724Z,4.06
2023-01-09T05:58:38.151Z,4.10
2023-01-09T06:01:04.947Z,4.10
2023-01-09T06:03:31.633Z,3.13
2023-01-09T06:05:58.278Z,4.04
2023-01-09T06:08:24.993Z,3.62
2023-01-09T06:10:51.633Z,4.19
2023-01-09T06:13:18.301Z,4.17
2023-01-09T06:15:47.636Z,3.75
2023-01-09T06:18:14.426Z,3.84
2023-01-09T06:20:41.155Z,3.86
2023-01-09T06:23:07.882Z,3.42
2023-01-09T06:25:34.539Z,4.17
2023-01-09T06:28:01.252Z,3.85
2023-01-09T06:30:28.201Z,4.22
2023-01-09T06:32:54.812Z,4.23
2023-01-09T06:35:22.384Z,3.82
2023-01-09T06:37:49.802Z,4.23
2023-01-09T06:40:17.288Z,4.26
2023-01-09T06:42:47.965Z,4.25
2023-01-09T06:45:16.117Z,4.28
2023-01-09T06:47:43.089Z,4.27
2023-01-09T06:50:10.338Z,3.28
2023-01-09T06:52:37.499Z,3.49
2023-01-09T06:55:04.801Z,3.18
2023-01-09T06:57:31.450Z,4.31
2023-01-09T06:59:58.072Z,4.33
2023-01-09T07:02:24.714Z,4.34
2023-01-09T07:04:51.397Z,4.36
2023-01-09T07:07:19.627Z,4.37
2023-01-09T07:09:46.429Z,3.11
2023-01-09T07:12:13.064Z,4.38
2023-01-09T07:14:39.681Z,3.46
2023-01-09T07:17:06.750Z,4.47
2023-01-09T07:19:33.404Z,4.63
2023-01-09T07:22:00.121Z,4.57
2023-01-09T07:24:27.198Z,4.60
2023-01-09T07:26:53.770Z,5.06
2023-01-09T07:29:20.363Z,5.17
2023-01-09T07:31:47.264Z,5.24
2023-01-09T07:34:13.840Z,5.33
2023-01-09T07:36:40.477Z,4.28
2023-01-09T07:39:07.031Z,5.36
2023-01-09T07:41:33.708Z,5.37
2023-01-09T07:44:00.258Z,4.48
2023-01-09T07:46:28.806Z,3.54
2023-01-09T07:48:56.272Z,4.63
2023-01-09T07:51:23.056Z,5.43
2023-01-09T07:53:49.629Z,5.49
2023-01-09T07:56:16.230Z,5.43
2023-01-09T07:58:42.791Z,5.56
2023-01-09T08:01:09.485Z,4.57
2023-01-09T08:03:36.103Z,5.29
2023-01-09T08:06:02.730Z,5.63
2023-01-09T08:08:29.414Z,5.68
2023-01-09T08:10:56.256Z,5.43
2023-01-09T08:13:22.911Z,5.71
2023-01-09T08:15:53.252Z,5.63
2023-01-09T08:18:19.985Z,5.41
2023-01-09T08:20:49.276Z,5.72
2023-01-09T08:23:15.885Z,5.72
2023-01-09T08:25:42.490Z,5.46
2023-01-09T08:28:12.279Z,4.83
2023-01-09T08:30:39.505Z,5.81
2023-01-09T08:33:06.202Z,5.84
2023-01-09T08:35:32.934Z,4.52
2023-01-09T08:37:59.531Z,5.85
2023-01-09T08:40:26.187Z,5.50
2023-01-09T08:43:11.373Z,5.79
2023-01-09T08:45:56.770Z,5.93
2023-01-09T08:48:26.081Z,5.82
2023-01-09T08:50:54.217Z,5.21
2023-01-09T08:53:20.837Z,5.85
2023-01-09T08:55:47.395Z,5.98
2023-01-09T08:58:14.074Z,6.02
2023-01-09T09:00:40.689Z,6.03
2023-01-09T09:03:07.377Z,6.05
2023-01-09T09:05:33.999Z,6.00
2023-01-09T09:08:00.792Z,5.94
2023-01-09T09:10:29.159Z,5.96
2023-01-09T09:12:57.906Z,6.12
2023-01-09T09:15:26.525Z,6.16
2023-01-09T09:17:55.638Z,6.25
2023-01-09T09:20:24.172Z,6.07
2023-01-09T09:22:50.785Z,6.19
2023-01-09T09:25:18.310Z,6.28
2023-01-09T09:27:45.491Z,6.27
2023-01-09T09:30:14.200Z,6.32
2023-01-09T09:32:42.020Z,5.14
2023-01-09T09:35:09.936Z,6.35
2023-01-09T09:37:37.157Z,6.41
2023-01-09T09:40:17.505Z,6.47
2023-01-09T09:43:31.904Z,6.51
2023-01-09T09:46:28.380Z,6.62
2023-01-09T09:49:01.368Z,6.59
2023-01-09T09:51:30.953Z,6.74
2023-01-09T09:54:06.286Z,6.74
2023-01-09T09:56:37.925Z,6.78
2023-01-09T09:59:11.141Z,6.82
2023-01-09T10:01:45.129Z,6.77
2023-01-09T10:04:18.000Z,6.80
2023-01-09T10:06:47.477Z,6.44
2023-01-09T10:09:29.274Z,6.85
2023-01-09T10:12:01.660Z,6.83
2023-01-09T10:14:28.572Z,6.08
2023-01-09T10:17:22.955Z,6.79
2023-01-09T10:19:55.450Z,6.78
2023-01-09T10:22:52.949Z,6.70
2023-01-09T10:25:22.733Z,6.37
2023-01-09T10:28:20.405Z,6.72
2023-01-09T10:30:59.140Z,6.67
2023-01-09T10:33:40.743Z,6.63
2023-01-09T10:36:19.475Z,6.65
2023-01-09T10:38:49.822Z,6.64
2023-01-09T10:41:19.888Z,6.64
2023-01-09T10:43:53.354Z,6.62
2023-01-09T10:46:27.966Z,6.65
2023-01-09T10:49:06.288Z,6.66
2023-01-09T10:51:44.192Z,6.69
2023-01-09T10:54:18.839Z,6.53
2023-01-09T10:56:56.565Z,5.87
2023-01-09T10:59:24.289Z,6.76
2023-01-09T11:01:51.196Z,6.76
2023-01-09T11:04:25.568Z,6.76
2023-01-09T11:07:07.201Z,6.29
2023-01-09T11:10:00.871Z,6.71
2023-01-09T11:12:33.656Z,6.70
2023-01-09T11:15:29.055Z,6.69
2023-01-09T11:18:16.162Z,5.72
2023-01-09T11:20:42.915Z,6.85
2023-01-09T11:23:27.783Z,6.96
2023-01-09T11:25:56.760Z,7.01
2023-01-09T11:28:23.511Z,6.81
2023-01-09T11:31:01.186Z,6.67
2023-01-09T11:33:36.131Z,7.01
2023-01-09T11:36:07.922Z,7.06
2023-01-09T11:38:53.958Z,7.10
2023-01-09T11:41:30.704Z,7.18
2023-01-09T11:43:59.650Z,7.20
2023-01-09T11:46:45.621Z,7.05
2023-01-09T11:49:14.902Z,7.14
2023-01-09T11:51:42.891Z,7.17
2023-01-09T11:54:26.435Z,7.14
2023-01-09T11:56:53.457Z,7.20
2023-01-09T11:59:24.835Z,7.22
2023-01-09T12:02:10.280Z,7.13
2023-01-09T12:05:19.129Z,7.06
2023-01-09T12:07:48.381Z,7.01
2023-01-09T12:10:53.955Z,7.02
2023-01-09T12:13:38.754Z,6.96
2023-01-09T12:16:21.246Z,6.95
2023-01-09T12:18:50.830Z,7.00
2023-01-09T12:21:34.200Z,7.00
2023-01-09T12:24:22.663Z,7.01
2023-01-09T12:27:17.564Z,7.04
2023-01-09T12:30:11.689Z,6.97
2023-01-09T12:32:46.069Z,7.15
2023-01-09T12:35:20.880Z,6.67
2023-01-09T12:38:21.943Z,6.44
2023-01-09T12:41:12.633Z,7.15
2023-01-09T12:44:00.724Z,7.16
2023-01-09T12:46:38.799Z,7.19
2023-01-09T12:49:35.538Z,7.24
2023-01-09T12:52:14.908Z,7.23
2023-01-09T12:54:47.092Z,6.86
2023-01-09T12:57:30.678Z,6.98
2023-01-09T13:00:21.372Z,7.16
2023-01-09T13:03:03.758Z,7.14
2023-01-09T13:05:49.161Z,7.10
2023-01-09T13:08:22.814Z,6.69
2023-01-09T13:10:53.579Z,7.10
2023-01-09T13:13:26.501Z,7.13
2023-01-09T13:15:57.299Z,7.15
2023-01-09T13:18:43.732Z,6.46
2023-01-09T13:21:13.106Z,7.18
2023-01-09T13:23:52.287Z,7.30
2023-01-09T13:26:27.293Z,7.27
2023-01-09T13:29:00.610Z,7.40
2023-01-09T13:31:48.963Z,7.45
2023-01-09T13:34:22.425Z,7.45
2023-01-09T13:36:52.400Z,6.45
2023-01-09T13:39:27.000Z,6.96
2023-01-09T13:42:20.814Z,7.52
2023-01-09T13:44:49.931Z,7.57
2023-01-09T13:47:30.256Z,7.53
2023-01-09T13:49:59.752Z,7.52
2023-01-09T13:52:38.467Z,7.55
2023-01-09T13:55:11.191Z,7.63
2023-01-09T13:57:39.633Z,7.76
2023-01-09T14:00:12.090Z,7.87
2023-01-09T14:02:38.744Z,7.89
2023-01-09T14:05:09.392Z,7.94
2023-01-09T14:07:41.432Z,8.02
2023-01-09T14:10:23.059Z,8.04
2023-01-09T14:12:51.913Z,7.98
2023-01-09T14:15:27.548Z,7.99
2023-01-09T14:18:02.732Z,7.91
2023-01-09T14:20:42.271Z,7.95
2023-01-09T14:23:42.219Z,7.89
2023-01-09T14:26:18.999Z,7.75
2023-01-09T14:28:45.668Z,7.59
2023-01-09T14:31:28.341Z,7.62
2023-01-09T14:34:23.761Z,7.54
2023-01-09T14:36:59.744Z,7.47
2023-01-09T14:39:28.865Z,6.65
2023-01-09T14:42:15.724Z,7.45
2023-01-09T14:44:58.641Z,7.49
2023-01-09T14:47:31.004Z,7.50
2023-01-09T14:50:08.850Z,7.51
2023-01-09T14:52:40.325Z,7.50
2023-01-09T14:55:28.019Z,7.12
2023-01-09T14:57:55.156Z,6.44
2023-01-09T15:00:23.556Z,7.13
2023-01-09T15:02:53.174Z,7.41
2023-01-09T15:05:23.901Z,7.35
2023-01-09T15:08:01.212Z,7.30
2023-01-09T15:10:35.232Z,6.59
2023-01-09T15:13:05.577Z,7.15
2023-01-09T15:15:32.183Z,7.23
2023-01-09T15:18:10.534Z,5.92
2023-01-09T15:20:37.195Z,6.22
2023-01-09T15:23:05.404Z,6.37
2023-01-09T15:25:39.854Z,7.08
2023-01-09T15:28:25.425Z,6.61
2023-01-09T15:31:16.334Z,6.85
2023-01-09T15:33:46.084Z,6.84
2023-01-09T15:36:19.804Z,6.83
2023-01-09T15:38:48.362Z,6.77
2023-01-09T15:41:36.825Z,6.78
2023-01-09T15:44:06.326Z,6.10
2023-01-09T15:46:33.167Z,6.71
2023-01-09T15:49:00.400Z,6.31
2023-01-09T15:51:28.379Z,6.33
2023-01-09T15:53:57.569Z,6.27
2023-01-09T15:56:25.590Z,6.55
2023-01-09T15:58:56.138Z,5.56
2023-01-09T16:01:29.788Z,6.48
2023-01-09T16:04:12.763Z,5.97
2023-01-09T16:06:51.123Z,6.36
2023-01-09T16:09:23.776Z,6.34
2023-01-09T16:11:53.865Z,6.33
2023-01-09T16:14:24.157Z,6.31
2023-01-09T16:16:52.364Z,6.28
2023-01-09T16:19:30.535Z,6.20
2023-01-09T16:21:59.488Z,6.27
2023-01-09T16:24:28.789Z,6.25
2023-01-09T16:27:17.388Z,6.26
2023-01-09T16:29:49.757Z,6.25
2023-01-09T16:32:24.750Z,6.25
2023-01-09T16:34:53.998Z,6.20
2023-01-09T16:37:23.121Z,6.15
2023-01-09T16:40:05.062Z,6.11
2023-01-09T16:42:53.882Z,6.05
2023-01-09T16:45:21.189Z,6.01
2023-01-09T16:47:47.831Z,5.92
2023-01-09T16:50:14.427Z,5.79
2023-01-09T16:52:41.041Z,5.84
2023-01-09T16:55:09.543Z,5.82
2023-01-09T16:57:36.331Z,5.40
2023-01-09T17:00:04.594Z,5.77
2023-01-09T17:02:31.274Z,5.73
2023-01-09T17:04:59.304Z,5.70
2023-01-09T17:07:28.535Z,5.69
2023-01-09T17:09:55.093Z,5.63
2023-01-09T17:12:24.807Z,5.62
2023-01-09T17:14:51.346Z,5.60
2023-01-09T17:17:18.357Z,5.39
2023-01-09T17:19:46.770Z,4.97
2023-01-09T17:22:14.194Z,5.55
2023-01-09T17:24:59.863Z,5.56
2023-01-09T17:27:51.145Z,5.12
2023-01-09T17:30:19.433Z,4.94
2023-01-09T17:32:47.197Z,5.50
2023-01-09T17:35:15.761Z,5.50
2023-01-09T17:37:42.758Z,5.46
2023-01-09T17:40:20.092Z,5.36
2023-01-09T17:42:46.699Z,5.43
2023-01-09T17:45:13.744Z,4.72
2023-01-09T17:47:40.407Z,5.42
2023-01-09T17:50:07.613Z,5.42
2023-01-09T17:52:34.452Z,5.44
2023-01-09T17:55:05.026Z,5.43
2023-01-09T17:57:32.615Z,4.56
2023-01-09T17:59:59.305Z,5.19
2023-01-09T18:02:25.966Z,4.55
2023-01-09T18:04:52.536Z,4.82
2023-01-09T18:07:20.571Z,4.57
2023-01-09T18:09:47.261Z,5.43
2023-01-09T18:12:14.115Z,5.11
2023-01-09T18:14:41.978Z,5.21
2023-01-09T18:17:11.706Z,5.43
2023-01-09T18:19:38.346Z,3.63
2023-01-09T18:22:04.947Z,4.72
2023-01-09T18:24:31.753Z,4.94
2023-01-09T18:27:01.387Z,5.43
2023-01-09T18:29:28.231Z,5.32
2023-01-09T18:31:54.905Z,5.39
2023-01-09T18:36:48.214Z,3.75
2023-01-09T18:39:14.917Z,5.35
2023-01-09T18:41:42.417Z,5.35
2023-01-09T18:44:09.117Z,5.34
2023-01-09T18:46:38.168Z,5.32
2023-01-09T18:49:05.261Z,5.32
2023-01-09T18:51:34.537Z,5.32
2023-01-09T18:54:02.687Z,5.28
2023-01-09T18:56:32.018Z,5.22
2023-01-09T18:58:58.671Z,5.03
2023-01-09T19:01:29.918Z,5.05
2023-01-09T19:03:57.117Z,5.00
2023-01-09T19:06:24.155Z,4.67
2023-01-09T19:08:51.630Z,4.94
2023-01-09T19:11:18.559Z,4.92
2023-01-09T19:13:45.216Z,4.90
2023-01-09T19:16:11.871Z,4.85
2023-01-09T19:18:40.672Z,3.67
2023-01-09T19:21:16.069Z,4.76
2023-01-09T19:23:44.116Z,4.01
2023-01-09T19:26:18.243Z,4.74
2023-01-09T19:28:46.535Z,4.74
2023-01-09T19:31:14.143Z,4.59
2023-01-09T19:33:40.899Z,4.70
2023-01-09T19:36:08.015Z,4.83
2023-01-09T19:38:34.708Z,4.53
2023-01-09T19:41:09.701Z,4.86
2023-01-09T19:43:40.545Z,4.78
2023-01-09T19:46:09.200Z,4.85
2023-01-09T19:48:35.998Z,4.04
2023-01-09T19:51:04.630Z,4.78
2023-01-09T19:53:31.980Z,4.88
2023-01-09T19:56:16.598Z,4.14
2023-01-09T19:58:49.021Z,4.84
2023-01-09T20:01:18.264Z,4.87
2023-01-09T20:03:46.996Z,4.88
2023-01-09T20:06:17.539Z,4.88
2023-01-09T20:08:47.776Z,4.87
2023-01-09T20:11:15.508Z,4.86
2023-01-09T20:13:42.682Z,4.78
2023-01-09T20:16:15.455Z,3.65
2023-01-09T20:18:42.065Z,4.25
2023-01-09T20:21:09.059Z,4.88
2023-01-09T20:23:36.060Z,4.88
2023-01-09T20:26:03.701Z,4.57
2023-01-09T20:28:30.399Z,4.90
2023-01-09T20:30:57.074Z,4.61
2023-01-09T20:33:24.260Z,4.67
2023-01-09T20:35:50.980Z,4.98
2023-01-09T20:38:17.731Z,5.00
2023-01-09T20:40:44.454Z,4.99
2023-01-09T20:43:12.465Z,4.69
2023-01-09T20:45:39.900Z,4.41
2023-01-09T20:48:07.064Z,4.74
2023-01-09T20:50:33.718Z,3.41
2023-01-09T20:53:00.327Z,4.24
2023-01-09T20:55:26.924Z,3.97
2023-01-09T20:57:53.538Z,5.02
2023-01-09T21:00:20.780Z,4.85
2023-01-09T21:02:47.459Z,4.65
2023-01-09T21:05:14.248Z,5.06
2023-01-09T21:07:40.827Z,4.75
2023-01-09T21:10:07.817Z,5.10
2023-01-09T21:12:34.852Z,5.06
2023-01-09T21:15:04.715Z,4.32
2023-01-09T21:17:36.252Z,4.18
2023-01-09T21:20:07.402Z,4.50
2023-01-09T21:22:36.081Z,5.14
2023-01-09T21:25:03.291Z,4.17
2023-01-09T21:27:35.363Z,4.85
2023-01-09T21:30:06.047Z,5.17
2023-01-09T21:32:32.827Z,5.16
2023-01-09T21:35:05.096Z,5.18
2023-01-09T21:37:34.435Z,5.19
2023-01-09T21:40:01.889Z,5.17
2023-01-09T21:42:47.346Z,5.18
2023-01-09T21:45:36.017Z,5.21
2023-01-09T21:48:06.590Z,5.19
2023-01-09T21:50:34.121Z,4.54
2023-01-09T21:53:00.907Z,5.22
2023-01-09T21:55:31.905Z,5.22
2023-01-09T21:58:01.141Z,5.23
2023-01-09T22:00:29.112Z,5.19
2023-01-09T22:02:56.282Z,5.20
2023-01-09T22:05:24.588Z,4.87
2023-01-09T22:07:51.573Z,5.17
2023-01-09T22:10:18.153Z,5.17
2023-01-09T22:13:04.799Z,5.00
2023-01-09T22:15:32.164Z,4.73
2023-01-09T22:17:58.794Z,5.10
2023-01-09T22:20:25.418Z,5.11
2023-01-09T22:22:52.035Z,4.57
2023-01-09T22:25:18.614Z,4.16
2023-01-09T22:27:45.270Z,4.06
2023-01-09T22:30:12.207Z,4.68
2023-01-09T22:32:38.906Z,5.02
2023-01-09T22:35:06.259Z,4.24
2023-01-09T22:37:33.672Z,4.97
2023-01-09T22:40:00.310Z,4.07
2023-01-09T22:42:27.968Z,4.95
2023-01-09T22:44:54.560Z,4.89
2023-01-09T22:47:21.116Z,4.87
2023-01-09T22:49:52.628Z,4.92
2023-01-09T22:52:20.018Z,4.95
2023-01-09T22:54:49.443Z,4.88
2023-01-09T22:57:16.141Z,4.32
2023-01-09T22:59:42.810Z,4.90
2023-01-09T23:02:11.510Z,4.90
2023-01-09T23:04:38.210Z,4.34
2023-01-09T23:07:04.954Z,4.67
2023-01-09T23:09:31.534Z,4.68
2023-01-09T23:12:05.218Z,4.95
2023-01-09T23:14:34.523Z,4.95
2023-01-09T23:17:02.421Z,4.14
2023-01-09T23:19:32.400Z,4.86
2023-01-09T23:22:00.413Z,4.83
2023-01-09T23:24:27.949Z,4.83
2023-01-09T23:26:55.636Z,3.93
2023-01-09T23:29:23.323Z,4.79
2023-01-09T23:31:53.387Z,4.82
2023-01-09T23:34:24.201Z,4.80
2023-01-09T23:36:54.199Z,4.70
2023-01-09T23:39:21.022Z,4.71
2023-01-09T23:42:06.299Z,4.72
2023-01-09T23:44:33.159Z,4.66
2023-01-09T23:47:00.111Z,4.22
2023-01-09T23:49:27.333Z,3.88
2023-01-09T23:51:53.944Z,4.58
2023-01-09T23:54:20.611Z,4.34
2023-01-09T23:56:47.245Z,4.43
2023-01-09T23:59:14.583Z,4.49
